sensor_id;sensor_type;location;lat;lon;timestamp;temperature;humidity
15930;DHT22;8064;51.142;4.780;2024-03-08T00:02:00;6.40;99.90
15930;DHT22;8064;51.142;4.780;2024-03-08T00:04:26;6.40;99.90
15930;DHT22;8064;51.142;4.780;2024-03-08T00:06:52;6.40;99.90
15930;DHT22;8064;51.142;4.780;2024-03-08T00:09:17;6.40;99.90
15930;DHT22;8064;51.142;4.780;2024-03-08T00:11:43;6.30;99.90
15930;DHT22;8064;51.142;4.780;2024-03-08T00:14:09;6.30;99.90
15930;DHT22;8064;51.142;4.780;2024-03-08T00:16:35;6.30;99.90
15930;DHT22;8064;51.142;4.780;2024-03-08T00:19:01;6.30;99.90
15930;DHT22;8064;51.142;4.780;2024-03-08T00:21:27;6.30;99.90
15930;DHT22;8064;51.142;4.780;2024-03-08T00:23:53;6.30;99.90
15930;DHT22;8064;51.142;4.780;2024-03-08T00:26:20;6.30;99.90
15930;DHT22;8064;51.142;4.780;2024-03-08T00:28:48;6.20;99.90
15930;DHT22;8064;51.142;4.780;2024-03-08T00:31:14;6.30;99.90
15930;DHT22;8064;51.142;4.780;2024-03-08T00:33:42;6.20;99.90
15930;DHT22;8064;51.142;4.780;2024-03-08T00:36:08;6.20;99.90
15930;DHT22;8064;51.142;4.780;2024-03-08T00:38:34;6.20;99.90
15930;DHT22;8064;51.142;4.780;2024-03-08T00:41:00;6.20;99.90
15930;DHT22;8064;51.142;4.780;2024-03-08T00:43:26;6.20;99.90
15930;DHT22;8064;51.142;4.780;2024-03-08T00:45:51;6.10;99.90
15930;DHT22;8064;51.142;4.780;2024-03-08T00:48:17;6.10;99.90
15930;DHT22;8064;51.142;4.780;2024-03-08T00:50:43;6.10;99.90
15930;DHT22;8064;51.142;4.780;2024-03-08T00:53:12;6.10;99.90
15930;DHT22;8064;51.142;4.780;2024-03-08T00:55:38;6.10;99.90
15930;DHT22;8064;51.142;4.780;2024-03-08T00:58:04;6.10;99.90
15930;DHT22;8064;51.142;4.780;2024-03-08T01:00:30;6.00;99.90
15930;DHT22;8064;51.142;4.780;2024-03-08T01:02:56;6.00;99.90
15930;DHT22;8064;51.142;4.780;2024-03-08T01:05:22;6.00;99.90
15930;DHT22;8064;51.142;4.780;2024-03-08T01:07:50;6.00;99.90
15930;DHT22;8064;51.142;4.780;2024-03-08T01:10:16;6.00;99.90
15930;DHT22;8064;51.142;4.780;2024-03-08T01:12:42;5.90;99.90
15930;DHT22;8064;51.142;4.780;2024-03-08T01:15:09;6.00;99.90
15930;DHT22;8064;51.142;4.780;2024-03-08T01:17:36;5.90;99.90
15930;DHT22;8064;51.142;4.780;2024-03-08T01:20:03;5.90;99.80
15930;DHT22;8064;51.142;4.780;2024-03-08T01:22:29;5.90;99.80
15930;DHT22;8064;51.142;4.780;2024-03-08T01:24:56;5.90;99.80
15930;DHT22;8064;51.142;4.780;2024-03-08T01:27:22;5.80;99.80
15930;DHT22;8064;51.142;4.780;2024-03-08T01:29:47;5.80;99.70
15930;DHT22;8064;51.142;4.780;2024-03-08T01:32:13;5.80;99.70
15930;DHT22;8064;51.142;4.780;2024-03-08T01:34:40;5.80;99.70
15930;DHT22;8064;51.142;4.780;2024-03-08T01:37:06;5.80;99.60
15930;DHT22;8064;51.142;4.780;2024-03-08T01:39:32;5.70;99.60
15930;DHT22;8064;51.142;4.780;2024-03-08T01:41:58;5.70;99.60
15930;DHT22;8064;51.142;4.780;2024-03-08T01:44:24;5.70;99.50
15930;DHT22;8064;51.142;4.780;2024-03-08T01:46:51;5.70;99.50
15930;DHT22;8064;51.142;4.780;2024-03-08T01:49:19;5.70;99.50
15930;DHT22;8064;51.142;4.780;2024-03-08T01:51:47;5.60;99.50
15930;DHT22;8064;51.142;4.780;2024-03-08T01:54:16;5.60;99.50
15930;DHT22;8064;51.142;4.780;2024-03-08T01:56:42;5.60;99.80
15930;DHT22;8064;51.142;4.780;2024-03-08T01:59:08;5.60;99.70
15930;DHT22;8064;51.142;4.780;2024-03-08T02:01:35;5.60;99.80
15930;DHT22;8064;51.142;4.780;2024-03-08T02:04:01;5.60;99.50
15930;DHT22;8064;51.142;4.780;2024-03-08T02:06:26;5.50;99.40
15930;DHT22;8064;51.142;4.780;2024-03-08T02:08:53;5.50;99.40
15930;DHT22;8064;51.142;4.780;2024-03-08T02:11:19;5.50;99.40
15930;DHT22;8064;51.142;4.780;2024-03-08T02:13:46;5.50;99.40
15930;DHT22;8064;51.142;4.780;2024-03-08T02:16:12;5.50;99.40
15930;DHT22;8064;51.142;4.780;2024-03-08T02:18:38;5.50;99.40
15930;DHT22;8064;51.142;4.780;2024-03-08T02:21:05;5.40;99.30
15930;DHT22;8064;51.142;4.780;2024-03-08T02:23:32;5.40;99.30
15930;DHT22;8064;51.142;4.780;2024-03-08T02:25:59;5.40;99.30
15930;DHT22;8064;51.142;4.780;2024-03-08T02:28:25;5.30;99.30
15930;DHT22;8064;51.142;4.780;2024-03-08T02:30:51;5.40;99.40
15930;DHT22;8064;51.142;4.780;2024-03-08T02:33:17;5.30;99.30
15930;DHT22;8064;51.142;4.780;2024-03-08T02:35:44;5.30;99.30
15930;DHT22;8064;51.142;4.780;2024-03-08T02:38:13;5.30;99.30
15930;DHT22;8064;51.142;4.780;2024-03-08T02:40:42;5.30;99.30
15930;DHT22;8064;51.142;4.780;2024-03-08T02:43:09;5.20;99.30
15930;DHT22;8064;51.142;4.780;2024-03-08T02:45:35;5.20;99.30
15930;DHT22;8064;51.142;4.780;2024-03-08T02:48:01;5.20;99.30
15930;DHT22;8064;51.142;4.780;2024-03-08T02:50:27;5.10;99.30
15930;DHT22;8064;51.142;4.780;2024-03-08T02:52:54;5.20;99.30
15930;DHT22;8064;51.142;4.780;2024-03-08T02:55:20;5.20;99.30
15930;DHT22;8064;51.142;4.780;2024-03-08T02:57:46;5.10;99.30
15930;DHT22;8064;51.142;4.780;2024-03-08T03:00:13;5.10;99.30
15930;DHT22;8064;51.142;4.780;2024-03-08T03:02:41;5.10;99.30
15930;DHT22;8064;51.142;4.780;2024-03-08T03:05:08;5.10;99.30
15930;DHT22;8064;51.142;4.780;2024-03-08T03:07:35;5.10;99.30
15930;DHT22;8064;51.142;4.780;2024-03-08T03:10:01;5.00;99.20
15930;DHT22;8064;51.142;4.780;2024-03-08T03:12:28;5.00;99.20
15930;DHT22;8064;51.142;4.780;2024-03-08T03:14:54;5.00;99.30
15930;DHT22;8064;51.142;4.780;2024-03-08T03:17:23;5.00;99.30
15930;DHT22;8064;51.142;4.780;2024-03-08T03:19:48;5.00;99.30
15930;DHT22;8064;51.142;4.780;2024-03-08T03:22:14;5.00;99.30
15930;DHT22;8064;51.142;4.780;2024-03-08T03:24:41;4.90;99.20
15930;DHT22;8064;51.142;4.780;2024-03-08T03:27:08;4.90;99.20
15930;DHT22;8064;51.142;4.780;2024-03-08T03:29:41;4.90;99.30
15930;DHT22;8064;51.142;4.780;2024-03-08T03:32:11;4.90;99.30
15930;DHT22;8064;51.142;4.780;2024-03-08T03:34:38;4.90;99.30
15930;DHT22;8064;51.142;4.780;2024-03-08T03:37:04;4.90;99.30
15930;DHT22;8064;51.142;4.780;2024-03-08T03:39:30;4.80;99.30
15930;DHT22;8064;51.142;4.780;2024-03-08T03:41:58;4.80;99.30
15930;DHT22;8064;51.142;4.780;2024-03-08T03:44:24;4.80;99.30
15930;DHT22;8064;51.142;4.780;2024-03-08T03:46:50;4.80;99.30
15930;DHT22;8064;51.142;4.780;2024-03-08T03:49:17;4.80;99.30
15930;DHT22;8064;51.142;4.780;2024-03-08T03:51:43;4.80;99.30
15930;DHT22;8064;51.142;4.780;2024-03-08T03:54:10;4.80;99.30
15930;DHT22;8064;51.142;4.780;2024-03-08T03:56:36;4.70;99.30
15930;DHT22;8064;51.142;4.780;2024-03-08T03:59:02;4.70;99.30
15930;DHT22;8064;51.142;4.780;2024-03-08T04:01:28;4.70;99.30
15930;DHT22;8064;51.142;4.780;2024-03-08T04:03:55;4.70;99.40
15930;DHT22;8064;51.142;4.780;2024-03-08T04:06:20;4.70;99.40
15930;DHT22;8064;51.142;4.780;2024-03-08T04:08:48;4.60;99.30
15930;DHT22;8064;51.142;4.780;2024-03-08T04:11:13;4.60;99.30
15930;DHT22;8064;51.142;4.780;2024-03-08T04:13:41;4.60;99.40
15930;DHT22;8064;51.142;4.780;2024-03-08T04:16:07;4.60;99.40
15930;DHT22;8064;51.142;4.780;2024-03-08T04:18:34;4.60;99.40
15930;DHT22;8064;51.142;4.780;2024-03-08T04:21:02;4.50;99.40
15930;DHT22;8064;51.142;4.780;2024-03-08T04:23:28;4.60;99.40
15930;DHT22;8064;51.142;4.780;2024-03-08T04:25:54;4.50;99.40
15930;DHT22;8064;51.142;4.780;2024-03-08T04:28:20;4.50;99.40
15930;DHT22;8064;51.142;4.780;2024-03-08T04:30:45;4.50;99.50
15930;DHT22;8064;51.142;4.780;2024-03-08T04:33:11;4.50;99.50
15930;DHT22;8064;51.142;4.780;2024-03-08T04:35:37;4.50;99.50
15930;DHT22;8064;51.142;4.780;2024-03-08T04:38:03;4.40;99.40
15930;DHT22;8064;51.142;4.780;2024-03-08T04:40:31;4.40;99.50
15930;DHT22;8064;51.142;4.780;2024-03-08T04:42:57;4.40;99.50
15930;DHT22;8064;51.142;4.780;2024-03-08T04:45:24;4.40;99.50
15930;DHT22;8064;51.142;4.780;2024-03-08T04:47:51;4.40;99.50
15930;DHT22;8064;51.142;4.780;2024-03-08T04:50:18;4.40;99.60
15930;DHT22;8064;51.142;4.780;2024-03-08T04:52:44;4.40;99.60
15930;DHT22;8064;51.142;4.780;2024-03-08T04:55:10;4.30;99.50
15930;DHT22;8064;51.142;4.780;2024-03-08T04:57:35;4.30;99.60
15930;DHT22;8064;51.142;4.780;2024-03-08T05:00:03;4.30;99.60
15930;DHT22;8064;51.142;4.780;2024-03-08T05:02:33;4.30;99.60
15930;DHT22;8064;51.142;4.780;2024-03-08T05:04:58;4.30;99.60
15930;DHT22;8064;51.142;4.780;2024-03-08T05:07:24;4.20;99.60
15930;DHT22;8064;51.142;4.780;2024-03-08T05:09:51;4.20;99.60
15930;DHT22;8064;51.142;4.780;2024-03-08T05:12:18;4.20;99.70
15930;DHT22;8064;51.142;4.780;2024-03-08T05:14:45;4.20;99.70
15930;DHT22;8064;51.142;4.780;2024-03-08T05:17:15;4.20;99.70
15930;DHT22;8064;51.142;4.780;2024-03-08T05:19:41;4.20;99.80
15930;DHT22;8064;51.142;4.780;2024-03-08T05:22:06;4.20;99.80
15930;DHT22;8064;51.142;4.780;2024-03-08T05:24:32;4.20;99.80
15930;DHT22;8064;51.142;4.780;2024-03-08T05:26:58;4.20;99.80
15930;DHT22;8064;51.142;4.780;2024-03-08T05:29:26;4.10;99.80
15930;DHT22;8064;51.142;4.780;2024-03-08T05:31:52;4.10;99.80
15930;DHT22;8064;51.142;4.780;2024-03-08T05:34:18;4.10;99.80
15930;DHT22;8064;51.142;4.780;2024-03-08T05:36:45;4.10;99.90
15930;DHT22;8064;51.142;4.780;2024-03-08T05:39:13;4.10;99.90
15930;DHT22;8064;51.142;4.780;2024-03-08T05:41:39;4.10;99.90
15930;DHT22;8064;51.142;4.780;2024-03-08T05:44:06;4.00;99.90
15930;DHT22;8064;51.142;4.780;2024-03-08T05:46:32;4.00;99.90
15930;DHT22;8064;51.142;4.780;2024-03-08T05:48:57;4.00;99.90
15930;DHT22;8064;51.142;4.780;2024-03-08T05:51:25;4.00;99.90
15930;DHT22;8064;51.142;4.780;2024-03-08T05:53:53;4.00;99.90
15930;DHT22;8064;51.142;4.780;2024-03-08T05:56:21;4.00;99.90
15930;DHT22;8064;51.142;4.780;2024-03-08T05:58:48;4.00;99.90
15930;DHT22;8064;51.142;4.780;2024-03-08T06:01:15;4.00;99.90
15930;DHT22;8064;51.142;4.780;2024-03-08T06:03:41;4.00;99.90
15930;DHT22;8064;51.142;4.780;2024-03-08T06:06:12;4.00;99.90
15930;DHT22;8064;51.142;4.780;2024-03-08T06:08:38;3.90;99.90
15930;DHT22;8064;51.142;4.780;2024-03-08T06:11:04;3.90;99.90
15930;DHT22;8064;51.142;4.780;2024-03-08T06:13:31;4.00;99.90
15930;DHT22;8064;51.142;4.780;2024-03-08T06:15:57;3.90;99.90
15930;DHT22;8064;51.142;4.780;2024-03-08T06:18:23;3.90;99.90
15930;DHT22;8064;51.142;4.780;2024-03-08T06:20:49;3.90;99.90
15930;DHT22;8064;51.142;4.780;2024-03-08T06:23:14;3.90;99.90
15930;DHT22;8064;51.142;4.780;2024-03-08T06:25:47;4.00;99.90
15930;DHT22;8064;51.142;4.780;2024-03-08T06:28:12;4.00;99.90
15930;DHT22;8064;51.142;4.780;2024-03-08T06:30:40;4.00;99.90
15930;DHT22;8064;51.142;4.780;2024-03-08T06:33:05;4.00;99.90
15930;DHT22;8064;51.142;4.780;2024-03-08T06:35:32;4.00;99.90
15930;DHT22;8064;51.142;4.780;2024-03-08T06:37:58;4.00;99.90
15930;DHT22;8064;51.142;4.780;2024-03-08T06:40:24;4.10;99.90
15930;DHT22;8064;51.142;4.780;2024-03-08T06:42:50;4.10;99.90
15930;DHT22;8064;51.142;4.780;2024-03-08T06:45:17;4.10;99.90
15930;DHT22;8064;51.142;4.780;2024-03-08T06:47:46;4.20;99.90
15930;DHT22;8064;51.142;4.780;2024-03-08T06:50:12;4.20;99.90
15930;DHT22;8064;51.142;4.780;2024-03-08T06:52:38;4.30;99.90
15930;DHT22;8064;51.142;4.780;2024-03-08T06:55:04;4.30;99.90
15930;DHT22;8064;51.142;4.780;2024-03-08T06:57:31;4.40;99.90
15930;DHT22;8064;51.142;4.780;2024-03-08T06:59:57;4.50;99.90
15930;DHT22;8064;51.142;4.780;2024-03-08T07:02:23;4.50;99.90
15930;DHT22;8064;51.142;4.780;2024-03-08T07:04:51;4.60;99.90
15930;DHT22;8064;51.142;4.780;2024-03-08T07:07:18;4.80;99.90
15930;DHT22;8064;51.142;4.780;2024-03-08T07:09:46;4.80;99.90
15930;DHT22;8064;51.142;4.780;2024-03-08T07:12:12;5.00;99.90
15930;DHT22;8064;51.142;4.780;2024-03-08T07:14:39;5.10;99.90
15930;DHT22;8064;51.142;4.780;2024-03-08T07:17:07;5.20;99.90
15930;DHT22;8064;51.142;4.780;2024-03-08T07:19:35;5.30;99.90
15930;DHT22;8064;51.142;4.780;2024-03-08T07:22:01;5.40;99.90
15930;DHT22;8064;51.142;4.780;2024-03-08T07:24:29;5.60;99.90
15930;DHT22;8064;51.142;4.780;2024-03-08T07:27:04;5.70;99.80
15930;DHT22;8064;51.142;4.780;2024-03-08T07:29:33;5.80;99.60
15930;DHT22;8064;51.142;4.780;2024-03-08T07:31:59;5.90;99.50
15930;DHT22;8064;51.142;4.780;2024-03-08T07:34:26;6.00;99.50
15930;DHT22;8064;51.142;4.780;2024-03-08T07:36:52;6.10;99.30
15930;DHT22;8064;51.142;4.780;2024-03-08T07:39:18;6.20;99.20
15930;DHT22;8064;51.142;4.780;2024-03-08T07:41:44;6.30;99.20
15930;DHT22;8064;51.142;4.780;2024-03-08T07:44:10;6.50;99.20
15930;DHT22;8064;51.142;4.780;2024-03-08T07:46:35;6.60;99.00
15930;DHT22;8064;51.142;4.780;2024-03-08T07:49:02;6.70;98.90
15930;DHT22;8064;51.142;4.780;2024-03-08T07:51:28;6.80;98.80
15930;DHT22;8064;51.142;4.780;2024-03-08T07:53:56;6.90;98.70
15930;DHT22;8064;51.142;4.780;2024-03-08T07:56:23;7.00;98.60
15930;DHT22;8064;51.142;4.780;2024-03-08T07:58:51;7.20;98.60
15930;DHT22;8064;51.142;4.780;2024-03-08T08:01:17;7.30;98.40
15930;DHT22;8064;51.142;4.780;2024-03-08T08:03:43;7.40;98.30
15930;DHT22;8064;51.142;4.780;2024-03-08T08:06:09;7.60;98.20
15930;DHT22;8064;51.142;4.780;2024-03-08T08:08:35;7.70;98.00
15930;DHT22;8064;51.142;4.780;2024-03-08T08:11:02;7.80;97.90
15930;DHT22;8064;51.142;4.780;2024-03-08T08:13:28;7.90;97.80
15930;DHT22;8064;51.142;4.780;2024-03-08T08:15:58;8.00;97.60
15930;DHT22;8064;51.142;4.780;2024-03-08T08:18:24;8.10;97.50
15930;DHT22;8064;51.142;4.780;2024-03-08T08:20:51;8.20;97.20
15930;DHT22;8064;51.142;4.780;2024-03-08T08:23:18;8.20;97.20
15930;DHT22;8064;51.142;4.780;2024-03-08T08:25:45;8.40;97.20
15930;DHT22;8064;51.142;4.780;2024-03-08T08:28:11;8.60;97.00
15930;DHT22;8064;51.142;4.780;2024-03-08T08:30:38;8.70;96.90
15930;DHT22;8064;51.142;4.780;2024-03-08T08:33:04;8.90;96.80
15930;DHT22;8064;51.142;4.780;2024-03-08T08:35:31;9.00;96.40
15930;DHT22;8064;51.142;4.780;2024-03-08T08:38:00;9.20;96.40
15930;DHT22;8064;51.142;4.780;2024-03-08T08:40:29;9.30;96.30
15930;DHT22;8064;51.142;4.780;2024-03-08T08:42:56;9.40;95.90
15930;DHT22;8064;51.142;4.780;2024-03-08T08:45:23;9.50;95.60
15930;DHT22;8064;51.142;4.780;2024-03-08T08:47:49;9.60;95.40
15930;DHT22;8064;51.142;4.780;2024-03-08T08:50:16;9.70;95.30
15930;DHT22;8064;51.142;4.780;2024-03-08T08:52:49;9.80;95.40
15930;DHT22;8064;51.142;4.780;2024-03-08T08:55:15;10.00;94.50
15930;DHT22;8064;51.142;4.780;2024-03-08T08:57:46;10.10;94.40
15930;DHT22;8064;51.142;4.780;2024-03-08T09:00:13;10.20;94.20
15930;DHT22;8064;51.142;4.780;2024-03-08T09:02:41;10.40;94.00
15930;DHT22;8064;51.142;4.780;2024-03-08T09:05:07;10.50;93.70
15930;DHT22;8064;51.142;4.780;2024-03-08T09:07:33;10.70;93.70
15930;DHT22;8064;51.142;4.780;2024-03-08T09:10:00;10.80;93.60
15930;DHT22;8064;51.142;4.780;2024-03-08T09:12:26;10.90;93.20
15930;DHT22;8064;51.142;4.780;2024-03-08T09:14:52;11.10;93.00
15930;DHT22;8064;51.142;4.780;2024-03-08T09:17:18;11.20;92.90
15930;DHT22;8064;51.142;4.780;2024-03-08T09:19:46;11.30;92.70
15930;DHT22;8064;51.142;4.780;2024-03-08T09:22:13;11.50;92.40
15930;DHT22;8064;51.142;4.780;2024-03-08T09:24:39;11.60;92.20
15930;DHT22;8064;51.142;4.780;2024-03-08T09:27:05;11.70;92.10
15930;DHT22;8064;51.142;4.780;2024-03-08T09:29:31;11.90;91.60
15930;DHT22;8064;51.142;4.780;2024-03-08T09:31:57;12.00;91.40
15930;DHT22;8064;51.142;4.780;2024-03-08T09:34:22;12.10;91.00
15930;DHT22;8064;51.142;4.780;2024-03-08T09:36:49;12.10;90.80
15930;DHT22;8064;51.142;4.780;2024-03-08T09:39:17;12.20;90.90
15930;DHT22;8064;51.142;4.780;2024-03-08T09:41:45;12.40;90.80
15930;DHT22;8064;51.142;4.780;2024-03-08T09:44:14;12.60;90.60
15930;DHT22;8064;51.142;4.780;2024-03-08T09:46:40;13.00;90.20
15930;DHT22;8064;51.142;4.780;2024-03-08T09:49:06;14.00;87.90
15930;DHT22;8064;51.142;4.780;2024-03-08T09:51:34;15.60;82.60
15930;DHT22;8064;51.142;4.780;2024-03-08T09:54:02;17.70;76.60
15930;DHT22;8064;51.142;4.780;2024-03-08T09:56:32;19.90;70.00
15930;DHT22;8064;51.142;4.780;2024-03-08T09:58:59;21.60;64.10
15930;DHT22;8064;51.142;4.780;2024-03-08T10:01:51;23.10;60.10
15930;DHT22;8064;51.142;4.780;2024-03-08T10:04:17;24.60;55.90
15930;DHT22;8064;51.142;4.780;2024-03-08T10:06:45;25.60;53.50
15930;DHT22;8064;51.142;4.780;2024-03-08T10:09:12;26.50;51.40
15930;DHT22;8064;51.142;4.780;2024-03-08T10:11:40;27.10;49.60
15930;DHT22;8064;51.142;4.780;2024-03-08T10:14:07;27.70;48.40
15930;DHT22;8064;51.142;4.780;2024-03-08T10:16:33;28.20;47.20
15930;DHT22;8064;51.142;4.780;2024-03-08T10:19:00;28.90;46.50
15930;DHT22;8064;51.142;4.780;2024-03-08T10:21:26;29.40;44.80
15930;DHT22;8064;51.142;4.780;2024-03-08T10:23:52;29.90;44.10
15930;DHT22;8064;51.142;4.780;2024-03-08T10:26:19;30.50;43.20
15930;DHT22;8064;51.142;4.780;2024-03-08T10:28:48;30.90;41.70
15930;DHT22;8064;51.142;4.780;2024-03-08T10:31:15;31.10;40.90
15930;DHT22;8064;51.142;4.780;2024-03-08T10:33:41;31.50;40.60
15930;DHT22;8064;51.142;4.780;2024-03-08T10:36:08;31.90;40.00
15930;DHT22;8064;51.142;4.780;2024-03-08T10:38:36;32.30;40.00
15930;DHT22;8064;51.142;4.780;2024-03-08T10:41:03;32.60;38.70
15930;DHT22;8064;51.142;4.780;2024-03-08T10:43:36;32.60;37.80
15930;DHT22;8064;51.142;4.780;2024-03-08T10:46:17;32.40;36.90
15930;DHT22;8064;51.142;4.780;2024-03-08T10:48:49;32.00;36.20
15930;DHT22;8064;51.142;4.780;2024-03-08T10:51:16;31.40;37.00
15930;DHT22;8064;51.142;4.780;2024-03-08T10:53:44;30.70;38.30
15930;DHT22;8064;51.142;4.780;2024-03-08T10:56:11;29.90;39.20
15930;DHT22;8064;51.142;4.780;2024-03-08T10:58:40;28.80;40.70
15930;DHT22;8064;51.142;4.780;2024-03-08T11:01:06;27.60;42.60
15930;DHT22;8064;51.142;4.780;2024-03-08T11:06:30;25.00;44.00
15930;DHT22;8064;51.142;4.780;2024-03-08T11:08:57;23.60;45.70
15930;DHT22;8064;51.142;4.780;2024-03-08T11:11:32;22.60;47.30
15930;DHT22;8064;51.142;4.780;2024-03-08T11:14:00;21.50;48.20
15930;DHT22;8064;51.142;4.780;2024-03-08T11:18:54;19.70;51.00
15930;DHT22;8064;51.142;4.780;2024-03-08T11:21:20;19.00;51.70
15930;DHT22;8064;51.142;4.780;2024-03-08T11:23:59;18.40;52.70
15930;DHT22;8064;51.142;4.780;2024-03-08T11:26:25;18.10;53.80
15930;DHT22;8064;51.142;4.780;2024-03-08T11:28:51;17.80;54.60
15930;DHT22;8064;51.142;4.780;2024-03-08T11:31:25;17.60;54.90
15930;DHT22;8064;51.142;4.780;2024-03-08T11:33:52;17.40;55.10
15930;DHT22;8064;51.142;4.780;2024-03-08T11:36:21;17.30;55.60
15930;DHT22;8064;51.142;4.780;2024-03-08T11:38:48;17.20;56.10
15930;DHT22;8064;51.142;4.780;2024-03-08T11:41:15;17.00;56.20
15930;DHT22;8064;51.142;4.780;2024-03-08T11:43:43;16.90;56.40
15930;DHT22;8064;51.142;4.780;2024-03-08T11:46:10;16.80;56.30
15930;DHT22;8064;51.142;4.780;2024-03-08T11:48:39;16.70;57.00
15930;DHT22;8064;51.142;4.780;2024-03-08T11:51:08;16.60;56.90
15930;DHT22;8064;51.142;4.780;2024-03-08T11:53:34;16.50;56.90
15930;DHT22;8064;51.142;4.780;2024-03-08T11:56:08;16.40;57.30
15930;DHT22;8064;51.142;4.780;2024-03-08T11:58:34;16.30;57.70
15930;DHT22;8064;51.142;4.780;2024-03-08T12:01:04;16.30;57.70
15930;DHT22;8064;51.142;4.780;2024-03-08T12:03:31;16.20;57.70
15930;DHT22;8064;51.142;4.780;2024-03-08T12:06:00;16.10;58.20
15930;DHT22;8064;51.142;4.780;2024-03-08T12:08:26;16.10;58.30
15930;DHT22;8064;51.142;4.780;2024-03-08T12:10:58;16.10;58.70
15930;DHT22;8064;51.142;4.780;2024-03-08T12:13:27;16.00;58.90
15930;DHT22;8064;51.142;4.780;2024-03-08T12:15:57;16.00;59.10
15930;DHT22;8064;51.142;4.780;2024-03-08T12:18:25;15.90;59.30
15930;DHT22;8064;51.142;4.780;2024-03-08T12:20:52;15.80;60.30
15930;DHT22;8064;51.142;4.780;2024-03-08T12:23:17;15.70;59.80
15930;DHT22;8064;51.142;4.780;2024-03-08T12:25:44;15.70;59.80
15930;DHT22;8064;51.142;4.780;2024-03-08T12:28:12;15.70;59.90
15930;DHT22;8064;51.142;4.780;2024-03-08T12:30:49;15.60;60.00
15930;DHT22;8064;51.142;4.780;2024-03-08T12:33:18;15.50;59.90
15930;DHT22;8064;51.142;4.780;2024-03-08T12:35:54;15.50;60.30
15930;DHT22;8064;51.142;4.780;2024-03-08T12:38:21;15.40;60.50
15930;DHT22;8064;51.142;4.780;2024-03-08T12:40:50;15.30;60.80
15930;DHT22;8064;51.142;4.780;2024-03-08T12:43:16;15.20;61.10
15930;DHT22;8064;51.142;4.780;2024-03-08T12:45:43;15.20;61.30
15930;DHT22;8064;51.142;4.780;2024-03-08T12:48:15;15.10;61.30
15930;DHT22;8064;51.142;4.780;2024-03-08T12:50:41;15.00;61.60
15930;DHT22;8064;51.142;4.780;2024-03-08T12:53:10;15.00;61.80
15930;DHT22;8064;51.142;4.780;2024-03-08T12:55:36;14.90;62.20
15930;DHT22;8064;51.142;4.780;2024-03-08T12:58:02;14.90;62.00
15930;DHT22;8064;51.142;4.780;2024-03-08T13:00:28;14.80;62.00
15930;DHT22;8064;51.142;4.780;2024-03-08T13:02:54;14.70;62.70
15930;DHT22;8064;51.142;4.780;2024-03-08T13:05:21;14.70;63.40
15930;DHT22;8064;51.142;4.780;2024-03-08T13:07:46;14.70;63.40
15930;DHT22;8064;51.142;4.780;2024-03-08T13:10:13;14.70;63.30
15930;DHT22;8064;51.142;4.780;2024-03-08T13:12:42;14.70;63.50
15930;DHT22;8064;51.142;4.780;2024-03-08T13:15:09;14.60;63.40
15930;DHT22;8064;51.142;4.780;2024-03-08T13:17:46;14.60;63.70
15930;DHT22;8064;51.142;4.780;2024-03-08T13:20:13;14.60;64.30
15930;DHT22;8064;51.142;4.780;2024-03-08T13:22:42;14.60;64.30
15930;DHT22;8064;51.142;4.780;2024-03-08T13:25:08;14.60;64.20
15930;DHT22;8064;51.142;4.780;2024-03-08T13:27:40;14.60;64.10
15930;DHT22;8064;51.142;4.780;2024-03-08T13:30:09;14.60;64.60
15930;DHT22;8064;51.142;4.780;2024-03-08T13:32:44;14.60;64.80
15930;DHT22;8064;51.142;4.780;2024-03-08T13:35:10;14.60;64.70
15930;DHT22;8064;51.142;4.780;2024-03-08T13:37:49;14.60;64.70
15930;DHT22;8064;51.142;4.780;2024-03-08T13:40:16;14.60;64.60
15930;DHT22;8064;51.142;4.780;2024-03-08T13:42:46;14.50;64.40
15930;DHT22;8064;51.142;4.780;2024-03-08T13:45:12;14.50;64.40
15930;DHT22;8064;51.142;4.780;2024-03-08T13:47:39;14.40;64.10
15930;DHT22;8064;51.142;4.780;2024-03-08T13:50:07;14.40;64.20
15930;DHT22;8064;51.142;4.780;2024-03-08T13:52:33;14.40;64.60
15930;DHT22;8064;51.142;4.780;2024-03-08T13:55:01;14.40;65.00
15930;DHT22;8064;51.142;4.780;2024-03-08T13:57:26;14.40;66.10
15930;DHT22;8064;51.142;4.780;2024-03-08T13:59:53;14.40;65.30
15930;DHT22;8064;51.142;4.780;2024-03-08T14:02:19;14.50;65.10
15930;DHT22;8064;51.142;4.780;2024-03-08T14:04:48;14.50;64.90
15930;DHT22;8064;51.142;4.780;2024-03-08T14:07:15;14.50;65.10
15930;DHT22;8064;51.142;4.780;2024-03-08T14:09:41;14.50;65.50
15930;DHT22;8064;51.142;4.780;2024-03-08T14:12:09;14.60;65.50
15930;DHT22;8064;51.142;4.780;2024-03-08T14:14:35;14.60;65.00
15930;DHT22;8064;51.142;4.780;2024-03-08T14:17:01;14.60;65.00
15930;DHT22;8064;51.142;4.780;2024-03-08T14:19:28;14.60;65.00
15930;DHT22;8064;51.142;4.780;2024-03-08T14:21:54;14.70;65.40
15930;DHT22;8064;51.142;4.780;2024-03-08T14:24:20;14.60;65.50
15930;DHT22;8064;51.142;4.780;2024-03-08T14:26:45;14.70;65.40
15930;DHT22;8064;51.142;4.780;2024-03-08T14:29:14;14.70;65.20
15930;DHT22;8064;51.142;4.780;2024-03-08T14:31:40;14.60;65.50
15930;DHT22;8064;51.142;4.780;2024-03-08T14:34:07;14.60;65.40
15930;DHT22;8064;51.142;4.780;2024-03-08T14:36:34;14.60;65.50
15930;DHT22;8064;51.142;4.780;2024-03-08T14:39:00;14.60;65.80
15930;DHT22;8064;51.142;4.780;2024-03-08T14:41:25;14.60;65.70
15930;DHT22;8064;51.142;4.780;2024-03-08T14:43:52;14.50;65.90
15930;DHT22;8064;51.142;4.780;2024-03-08T14:46:19;14.50;65.60
15930;DHT22;8064;51.142;4.780;2024-03-08T14:48:47;14.50;65.60
15930;DHT22;8064;51.142;4.780;2024-03-08T14:51:13;14.40;66.00
15930;DHT22;8064;51.142;4.780;2024-03-08T14:53:40;14.40;66.00
15930;DHT22;8064;51.142;4.780;2024-03-08T14:56:08;14.40;65.90
15930;DHT22;8064;51.142;4.780;2024-03-08T14:58:34;14.30;65.90
15930;DHT22;8064;51.142;4.780;2024-03-08T15:01:00;14.30;65.90
15930;DHT22;8064;51.142;4.780;2024-03-08T15:03:27;14.20;66.00
15930;DHT22;8064;51.142;4.780;2024-03-08T15:05:54;14.20;66.10
15930;DHT22;8064;51.142;4.780;2024-03-08T15:08:21;14.20;66.10
15930;DHT22;8064;51.142;4.780;2024-03-08T15:10:48;14.10;66.10
15930;DHT22;8064;51.142;4.780;2024-03-08T15:13:20;14.10;66.60
15930;DHT22;8064;51.142;4.780;2024-03-08T15:15:49;14.10;66.90
15930;DHT22;8064;51.142;4.780;2024-03-08T15:18:22;14.10;66.80
15930;DHT22;8064;51.142;4.780;2024-03-08T15:20:52;14.10;67.10
15930;DHT22;8064;51.142;4.780;2024-03-08T15:23:18;14.10;67.20
15930;DHT22;8064;51.142;4.780;2024-03-08T15:25:46;14.10;67.20
15930;DHT22;8064;51.142;4.780;2024-03-08T15:28:15;14.10;66.90
15930;DHT22;8064;51.142;4.780;2024-03-08T15:30:43;14.10;66.70
15930;DHT22;8064;51.142;4.780;2024-03-08T15:33:13;14.10;67.00
15930;DHT22;8064;51.142;4.780;2024-03-08T15:35:41;14.10;66.90
15930;DHT22;8064;51.142;4.780;2024-03-08T15:38:07;14.00;66.80
15930;DHT22;8064;51.142;4.780;2024-03-08T15:40:33;14.00;66.90
15930;DHT22;8064;51.142;4.780;2024-03-08T15:43:00;14.00;66.90
15930;DHT22;8064;51.142;4.780;2024-03-08T15:45:26;14.00;66.90
15930;DHT22;8064;51.142;4.780;2024-03-08T15:47:53;13.90;67.00
15930;DHT22;8064;51.142;4.780;2024-03-08T15:50:19;13.90;67.00
15930;DHT22;8064;51.142;4.780;2024-03-08T15:52:49;13.80;67.10
15930;DHT22;8064;51.142;4.780;2024-03-08T15:55:16;13.80;67.20
15930;DHT22;8064;51.142;4.780;2024-03-08T15:57:49;13.70;67.30
15930;DHT22;8064;51.142;4.780;2024-03-08T16:00:17;13.60;67.40